Time;durP1;ratioP1;P1;durP2;ratioP2;P2;SDS_P1;SDS_P2;PMS_P1;PMS_P2;Temp;Humidity;BMP_temperature;BMP_pressure;BME280_temperature;BME280_humidity;BME280_pressure;Samples;Min_cycle;Max_cycle;Signal;HPM_P1;HPM_P2
2024/01/30 00:00:42;;;;;;;9.50;6.20;;;8.50;99.90;;;;;;5117930;28;20174;-80
2024/01/30 00:03:08;;;;;;;9.07;6.10;;;8.40;99.90;;;;;;5120576;28;20205;-81
2024/01/30 00:05:33;;;;;;;8.77;5.83;;;8.40;99.90;;;;;;5118173;28;20188;-80
2024/01/30 00:07:59;;;;;;;10.47;6.40;;;8.50;99.90;;;;;;5119551;28;20311;-81
2024/01/30 00:10:24;;;;;;;7.13;5.67;;;8.50;99.90;;;;;;5116824;28;20545;-81
2024/01/30 00:12:50;;;;;;;10.13;5.90;;;8.50;99.90;;;;;;5118193;28;20759;-81
2024/01/30 00:15:16;;;;;;;10.07;5.60;;;8.50;99.90;;;;;;5117997;28;20183;-81
2024/01/30 00:17:41;;;;;;;8.27;6.43;;;8.50;99.90;;;;;;5117746;28;20193;-81
2024/01/30 00:20:08;;;;;;;9.27;5.43;;;8.50;99.90;;;;;;5116264;28;20177;-80
2024/01/30 00:22:34;;;;;;;7.80;5.93;;;8.50;99.90;;;;;;5115816;28;20198;-80
2024/01/30 00:25:00;;;;;;;9.77;6.67;;;8.50;99.90;;;;;;5115976;28;20625;-81
2024/01/30 00:27:26;;;;;;;8.90;5.97;;;8.50;99.90;;;;;;5116369;28;20176;-81
2024/01/30 00:29:52;;;;;;;9.20;6.33;;;8.50;99.90;;;;;;5116118;28;20177;-81
2024/01/30 00:32:19;;;;;;;9.00;5.83;;;8.50;99.90;;;;;;5117613;28;20204;-81
2024/01/30 00:34:44;;;;;;;9.87;5.93;;;8.50;99.90;;;;;;5117228;28;20215;-81
2024/01/30 00:37:10;;;;;;;8.57;5.97;;;8.50;99.90;;;;;;5116086;28;20178;-81
2024/01/30 00:39:36;;;;;;;10.13;5.93;;;8.50;99.90;;;;;;5115340;28;20557;-80
2024/01/30 00:42:01;;;;;;;8.23;6.03;;;8.50;99.90;;;;;;5117224;28;20169;-81
2024/01/30 00:44:27;;;;;;;9.17;5.80;;;8.40;99.90;;;;;;5115075;28;20173;-80
2024/01/30 00:46:52;;;;;;;9.50;5.87;;;8.50;99.90;;;;;;5113710;28;20588;-80
2024/01/30 00:49:18;;;;;;;10.53;6.87;;;8.40;99.90;;;;;;5115022;28;20572;-80
2024/01/30 00:51:43;;;;;;;11.10;5.87;;;8.40;99.90;;;;;;5113813;28;20170;-80
2024/01/30 00:54:09;;;;;;;8.80;5.87;;;8.40;99.90;;;;;;5115750;28;20636;-80
2024/01/30 00:56:34;;;;;;;12.87;6.77;;;8.40;99.90;;;;;;5114398;28;20174;-81
2024/01/30 00:59:00;;;;;;;8.90;5.67;;;8.30;99.90;;;;;;5115042;28;20173;-80
2024/01/30 01:01:25;;;;;;;8.67;6.00;;;8.30;99.90;;;;;;5114465;28;20173;-80
2024/01/30 01:03:51;;;;;;;11.07;6.57;;;8.40;99.90;;;;;;5115551;28;20270;-81
2024/01/30 01:06:16;;;;;;;10.93;6.30;;;8.30;99.90;;;;;;5114358;28;20698;-79
2024/01/30 01:08:42;;;;;;;10.73;6.47;;;8.30;99.90;;;;;;5115195;28;20187;-81
2024/01/30 01:11:07;;;;;;;8.97;6.00;;;8.30;99.90;;;;;;5116171;28;20161;-80
2024/01/30 01:13:33;;;;;;;9.93;6.70;;;8.30;99.90;;;;;;5116178;28;20255;-81
2024/01/30 01:15:58;;;;;;;9.33;6.17;;;8.20;99.90;;;;;;5114505;28;20227;-81
2024/01/30 01:18:24;;;;;;;8.03;6.03;;;8.30;99.90;;;;;;5114291;28;20215;-80
2024/01/30 01:20:50;;;;;;;11.67;6.93;;;8.20;99.90;;;;;;5114526;28;20174;-80
2024/01/30 01:23:15;;;;;;;9.90;6.43;;;8.30;99.90;;;;;;5116154;28;20201;-80
2024/01/30 01:25:41;;;;;;;9.80;6.30;;;8.20;99.90;;;;;;5115263;28;20173;-81
2024/01/30 01:28:06;;;;;;;8.90;6.20;;;8.20;99.90;;;;;;5114266;28;20611;-80
2024/01/30 01:30:32;;;;;;;7.80;6.30;;;8.20;99.90;;;;;;5114154;28;20203;-81
2024/01/30 01:33:00;;;;;;;10.33;6.67;;;8.20;99.90;;;;;;5115407;28;20189;-81
2024/01/30 01:35:26;;;;;;;10.27;6.87;;;8.20;99.90;;;;;;5116119;28;20664;-80
2024/01/30 01:37:55;;;;;;;11.10;6.90;;;8.20;99.90;;;;;;5115512;28;20203;-81
2024/01/30 01:40:25;;;;;;;7.47;6.03;;;8.20;99.90;;;;;;5113968;28;20201;-80
2024/01/30 01:42:54;;;;;;;9.53;6.30;;;8.20;99.90;;;;;;5114394;28;20201;-81
2024/01/30 01:45:21;;;;;;;11.70;6.33;;;8.10;99.90;;;;;;5116786;28;20648;-81
2024/01/30 01:47:53;;;;;;;10.83;6.57;;;8.10;99.90;;;;;;5115289;28;20547;-80
2024/01/30 01:50:22;;;;;;;12.77;6.80;;;8.10;99.90;;;;;;5115660;28;20201;-81
2024/01/30 01:52:49;;;;;;;13.10;7.10;;;8.00;99.90;;;;;;5116913;28;20218;-80
2024/01/30 01:55:24;;;;;;;11.77;6.97;;;8.10;99.90;;;;;;5116014;28;20231;-81
2024/01/30 01:57:51;;;;;;;11.30;6.40;;;8.10;99.90;;;;;;5115988;28;20168;-81
2024/01/30 02:00:19;;;;;;;8.17;6.43;;;8.10;99.90;;;;;;5117457;28;20256;-81
2024/01/30 02:02:45;;;;;;;8.17;6.00;;;8.10;99.90;;;;;;5119100;28;20733;-81
2024/01/30 02:05:11;;;;;;;9.10;6.40;;;8.10;99.90;;;;;;5121877;28;20166;-80
2024/01/30 02:07:37;;;;;;;11.53;6.20;;;8.00;99.90;;;;;;5128311;28;20237;-80
2024/01/30 02:10:03;;;;;;;11.43;6.73;;;8.00;99.90;;;;;;5126477;28;20173;-81
2024/01/30 02:12:29;;;;;;;8.53;6.37;;;8.00;99.90;;;;;;5115379;28;20185;-80
2024/01/30 02:14:55;;;;;;;11.93;6.63;;;8.00;99.90;;;;;;5113749;28;20178;-81
2024/01/30 02:17:23;;;;;;;9.60;6.87;;;8.00;99.90;;;;;;5113085;28;20287;-80
2024/01/30 02:19:48;;;;;;;8.93;6.47;;;8.00;99.90;;;;;;5115470;28;20230;-80
2024/01/30 02:22:14;;;;;;;10.67;6.40;;;8.00;99.90;;;;;;5113231;28;20205;-81
2024/01/30 02:24:40;;;;;;;11.50;6.77;;;8.00;99.90;;;;;;5112833;28;20169;-80
2024/01/30 02:27:05;;;;;;;9.13;6.87;;;8.00;99.90;;;;;;5111922;28;20327;-80
2024/01/30 02:29:31;;;;;;;11.13;6.83;;;8.00;99.90;;;;;;5113527;28;20169;-80
2024/01/30 02:31:56;;;;;;;10.93;6.53;;;8.00;99.90;;;;;;5112842;28;20632;-80
2024/01/30 02:34:22;;;;;;;10.87;6.80;;;8.00;99.90;;;;;;5112404;28;20648;-81
2024/01/30 02:36:47;;;;;;;8.87;6.60;;;8.00;99.90;;;;;;5114240;28;20555;-80
2024/01/30 02:39:13;;;;;;;9.90;6.57;;;7.90;99.90;;;;;;5113348;28;20684;-81
2024/01/30 02:41:39;;;;;;;9.90;6.57;;;8.00;99.90;;;;;;5112833;28;20258;-80
2024/01/30 02:44:04;;;;;;;9.97;6.43;;;7.90;99.90;;;;;;5112993;28;20209;-81
2024/01/30 02:46:30;;;;;;;8.73;6.33;;;7.90;99.90;;;;;;5114846;28;20584;-81
2024/01/30 02:48:55;;;;;;;10.77;6.13;;;7.90;99.90;;;;;;5113703;28;20182;-81
2024/01/30 02:51:21;;;;;;;10.97;7.00;;;7.90;99.90;;;;;;5113520;28;20269;-80
2024/01/30 02:53:46;;;;;;;11.57;6.90;;;7.90;99.90;;;;;;5113438;28;20760;-81
2024/01/30 02:56:13;;;;;;;12.80;6.80;;;8.00;99.90;;;;;;5114590;28;20213;-81
2024/01/30 02:58:39;;;;;;;9.57;6.80;;;8.00;99.90;;;;;;5114585;28;20291;-81
2024/01/30 03:01:08;;;;;;;10.90;6.43;;;8.00;99.90;;;;;;5113113;28;20188;-81
2024/01/30 03:03:35;;;;;;;11.17;5.97;;;8.00;99.90;;;;;;5113813;28;20208;-81
2024/01/30 03:06:01;;;;;;;8.37;6.03;;;8.10;99.90;;;;;;5113843;28;20257;-80
2024/01/30 03:08:27;;;;;;;10.50;7.30;;;8.00;99.90;;;;;;5113302;28;20205;-80
2024/01/30 03:10:53;;;;;;;8.43;5.97;;;8.00;99.90;;;;;;5114489;28;20600;-81
2024/01/30 03:13:18;;;;;;;12.13;6.90;;;8.10;99.90;;;;;;5114672;28;20610;-80
2024/01/30 03:15:44;;;;;;;11.07;6.37;;;8.10;99.90;;;;;;5113262;28;20192;-81
2024/01/30 03:18:09;;;;;;;10.00;6.10;;;8.10;99.90;;;;;;5113826;28;20178;-81
2024/01/30 03:20:35;;;;;;;10.40;6.00;;;8.10;99.90;;;;;;5114388;28;20233;-81
2024/01/30 03:23:01;;;;;;;9.40;6.00;;;8.10;99.90;;;;;;5114391;28;20205;-81
2024/01/30 03:25:26;;;;;;;7.70;6.30;;;8.10;99.90;;;;;;5112915;28;20218;-81
2024/01/30 03:27:52;;;;;;;7.17;6.03;;;8.10;99.90;;;;;;5114442;28;20189;-81
2024/01/30 03:30:17;;;;;;;8.47;5.77;;;8.10;99.90;;;;;;5117477;28;20183;-80
2024/01/30 03:32:43;;;;;;;10.57;6.23;;;8.10;99.90;;;;;;5116938;28;20201;-80
2024/01/30 03:35:09;;;;;;;8.43;5.90;;;8.10;99.90;;;;;;5117061;28;20173;-81
2024/01/30 03:37:35;;;;;;;7.93;5.80;;;8.10;99.90;;;;;;5116846;28;20666;-80
2024/01/30 03:40:02;;;;;;;9.80;6.33;;;8.10;99.90;;;;;;5116847;28;20193;-81
2024/01/30 03:42:28;;;;;;;9.20;6.10;;;8.10;99.90;;;;;;5118252;27;20190;-81
2024/01/30 03:44:54;;;;;;;8.03;5.90;;;8.10;99.90;;;;;;5116432;28;20223;-80
2024/01/30 03:47:21;;;;;;;11.43;6.33;;;8.10;99.90;;;;;;5116473;28;20497;-81
2024/01/30 03:49:47;;;;;;;10.13;6.43;;;8.00;99.90;;;;;;5117718;28;20195;-81
2024/01/30 03:52:12;;;;;;;11.73;6.40;;;8.00;99.90;;;;;;5116856;28;20672;-81
2024/01/30 03:54:38;;;;;;;9.47;6.07;;;8.00;99.90;;;;;;5117437;28;20173;-81
2024/01/30 03:57:04;;;;;;;10.67;6.80;;;8.00;99.90;;;;;;5135635;28;20233;-81
2024/01/30 03:59:29;;;;;;;11.27;6.27;;;8.00;99.90;;;;;;5138059;28;20181;-80
2024/01/30 04:01:55;;;;;;;8.90;6.40;;;7.90;99.90;;;;;;5131237;28;20272;-81
2024/01/30 04:04:20;;;;;;;7.93;6.03;;;7.90;99.90;;;;;;5121207;28;20255;-81
2024/01/30 04:06:46;;;;;;;6.40;5.47;;;7.90;99.90;;;;;;5119507;28;20181;-81
2024/01/30 04:09:15;;;;;;;8.43;5.60;;;7.90;99.90;;;;;;5119308;28;20176;-81
2024/01/30 04:11:41;;;;;;;10.97;6.30;;;7.90;99.90;;;;;;5119405;28;20537;-81
2024/01/30 04:14:08;;;;;;;6.63;5.33;;;7.90;99.90;;;;;;5119513;28;20312;-81
2024/01/30 04:16:34;;;;;;;11.87;6.17;;;7.90;99.90;;;;;;5119936;28;20197;-81
2024/01/30 04:18:59;;;;;;;10.10;6.10;;;7.90;99.90;;;;;;5121749;28;20184;-81
2024/01/30 04:21:25;;;;;;;11.77;5.47;;;7.90;99.90;;;;;;5131072;28;20221;-81
2024/01/30 04:23:53;;;;;;;10.40;6.00;;;7.90;99.90;;;;;;5122197;28;20208;-81
2024/01/30 04:26:19;;;;;;;11.20;6.33;;;7.90;99.90;;;;;;5116508;28;20174;-81
2024/01/30 04:28:45;;;;;;;11.00;6.37;;;7.90;99.90;;;;;;5114957;28;20170;-80
2024/01/30 04:31:11;;;;;;;8.47;5.70;;;7.90;99.90;;;;;;5113739;28;20173;-80
2024/01/30 04:33:37;;;;;;;6.90;5.67;;;7.90;99.90;;;;;;5115991;28;20195;-80
2024/01/30 04:36:03;;;;;;;9.83;5.87;;;8.00;99.90;;;;;;5115649;28;20247;-80
2024/01/30 04:38:29;;;;;;;8.23;6.00;;;8.00;99.90;;;;;;5115453;28;20177;-80
2024/01/30 04:40:54;;;;;;;10.83;6.33;;;8.00;99.90;;;;;;5115020;28;20193;-80
2024/01/30 04:43:20;;;;;;;8.77;5.00;;;7.90;99.90;;;;;;5114283;28;20206;-81
2024/01/30 04:45:45;;;;;;;8.07;5.90;;;7.90;99.90;;;;;;5115417;28;20177;-81
2024/01/30 04:48:11;;;;;;;8.67;5.70;;;7.90;99.90;;;;;;5115544;28;20170;-81
2024/01/30 04:50:36;;;;;;;6.97;5.73;;;7.90;99.90;;;;;;5118051;28;20320;-80
2024/01/30 04:53:02;;;;;;;11.57;5.60;;;7.90;99.90;;;;;;5116050;28;20194;-80
2024/01/30 04:55:28;;;;;;;10.93;5.87;;;7.80;99.90;;;;;;5117843;28;20188;-81
2024/01/30 04:57:53;;;;;;;6.50;5.43;;;7.80;99.90;;;;;;5117613;28;20186;-81
2024/01/30 05:00:19;;;;;;;9.00;5.50;;;7.80;99.90;;;;;;5116116;28;20609;-80
2024/01/30 05:02:45;;;;;;;7.93;5.73;;;7.90;99.90;;;;;;5116000;28;20250;-80
2024/01/30 05:05:11;;;;;;;8.00;6.00;;;7.90;99.90;;;;;;5115702;28;20177;-80
2024/01/30 05:07:37;;;;;;;8.77;5.57;;;7.90;99.90;;;;;;5117435;28;20181;-81
2024/01/30 05:10:03;;;;;;;7.13;5.43;;;7.90;99.90;;;;;;5116953;28;20229;-81
2024/01/30 05:12:28;;;;;;;9.93;6.60;;;8.00;99.90;;;;;;5117607;28;20185;-81
2024/01/30 05:14:54;;;;;;;8.03;5.70;;;7.90;99.90;;;;;;5116614;28;20173;-81
2024/01/30 05:17:20;;;;;;;10.83;6.00;;;8.00;99.90;;;;;;5117338;28;20589;-80
2024/01/30 05:19:45;;;;;;;11.87;6.13;;;7.90;99.90;;;;;;5115178;28;20559;-80
2024/01/30 05:22:15;;;;;;;6.97;5.57;;;7.90;99.90;;;;;;5114926;28;20205;-81
2024/01/30 05:24:41;;;;;;;12.33;5.93;;;8.00;99.90;;;;;;5114727;28;20177;-80
2024/01/30 05:27:07;;;;;;;10.20;5.43;;;8.00;99.90;;;;;;5115348;28;20195;-82
2024/01/30 05:29:33;;;;;;;11.43;5.67;;;8.00;99.90;;;;;;5115538;28;20265;-80
2024/01/30 05:31:58;;;;;;;8.80;6.13;;;8.00;99.90;;;;;;5115020;28;20170;-81
2024/01/30 05:34:24;;;;;;;6.77;5.73;;;8.00;99.90;;;;;;5115256;28;20177;-80
2024/01/30 05:36:49;;;;;;;12.17;6.53;;;8.00;99.90;;;;;;5116605;28;20173;-81
2024/01/30 05:39:15;;;;;;;7.07;5.90;;;8.00;99.90;;;;;;5114807;28;20200;-80
2024/01/30 05:41:40;;;;;;;10.07;5.30;;;7.90;99.90;;;;;;5116417;28;20166;-80
2024/01/30 05:44:06;;;;;;;7.83;5.30;;;7.90;99.90;;;;;;5116424;28;20201;-81
2024/01/30 05:46:33;;;;;;;9.07;5.67;;;7.90;99.90;;;;;;5116851;28;20176;-80
2024/01/30 05:48:58;;;;;;;8.97;6.07;;;7.90;99.90;;;;;;5116474;28;20631;-80
2024/01/30 05:51:24;;;;;;;10.70;6.17;;;7.90;99.90;;;;;;5114998;28;20180;-81
2024/01/30 05:53:50;;;;;;;9.43;5.80;;;7.80;99.90;;;;;;5114641;28;20285;-79
2024/01/30 05:56:15;;;;;;;8.43;5.00;;;7.80;99.90;;;;;;5114474;28;20181;-81
2024/01/30 05:58:42;;;;;;;8.10;5.90;;;7.80;99.90;;;;;;5115011;28;20177;-81
2024/01/30 06:01:08;;;;;;;9.80;5.97;;;7.80;99.90;;;;;;5114767;28;20268;-81
2024/01/30 06:03:34;;;;;;;8.27;5.90;;;7.80;99.90;;;;;;5114549;28;20228;-80
2024/01/30 06:06:00;;;;;;;7.60;6.03;;;7.80;99.90;;;;;;5115186;28;20173;-81
2024/01/30 06:08:25;;;;;;;7.57;5.57;;;7.80;99.90;;;;;;5114765;28;20189;-81
2024/01/30 06:10:51;;;;;;;11.47;6.47;;;7.80;99.90;;;;;;5113275;28;20165;-80
2024/01/30 06:13:16;;;;;;;10.10;5.47;;;7.80;99.90;;;;;;5113502;28;20195;-80
2024/01/30 06:15:42;;;;;;;9.83;6.13;;;7.80;99.90;;;;;;5112553;28;20249;-80
2024/01/30 06:18:08;;;;;;;8.10;5.43;;;7.80;99.90;;;;;;5114964;28;20600;-81
2024/01/30 06:20:33;;;;;;;9.13;5.70;;;7.90;99.90;;;;;;5114781;28;20246;-81
2024/01/30 06:22:59;;;;;;;7.60;5.33;;;7.80;99.90;;;;;;5117129;28;20201;-81
2024/01/30 06:25:25;;;;;;;8.23;6.33;;;7.80;99.90;;;;;;5116506;28;20234;-81
2024/01/30 06:27:50;;;;;;;7.33;5.63;;;7.90;99.90;;;;;;5118750;28;20219;-81
2024/01/30 06:30:16;;;;;;;7.20;5.30;;;7.90;99.90;;;;;;5123465;28;20174;-81
2024/01/30 06:32:41;;;;;;;8.40;5.13;;;7.90;99.90;;;;;;5129775;28;20632;-81
2024/01/30 06:35:07;;;;;;;8.23;5.57;;;7.90;99.90;;;;;;5125355;28;20226;-81
2024/01/30 06:37:33;;;;;;;8.57;5.83;;;7.90;99.90;;;;;;5118041;28;20169;-81
2024/01/30 06:39:59;;;;;;;7.70;5.77;;;8.00;99.90;;;;;;5117940;28;20193;-81
2024/01/30 06:42:24;;;;;;;9.00;5.70;;;8.00;99.90;;;;;;5119361;28;20196;-81
2024/01/30 06:44:50;;;;;;;9.37;6.10;;;8.00;99.90;;;;;;5117250;28;20181;-81
2024/01/30 06:47:15;;;;;;;7.43;5.93;;;7.90;99.90;;;;;;5114120;28;20200;-81
2024/01/30 06:49:42;;;;;;;7.30;5.83;;;7.90;99.90;;;;;;5114413;28;20601;-81
2024/01/30 06:52:08;;;;;;;7.70;5.80;;;8.00;99.90;;;;;;5113115;28;20556;-80
2024/01/30 06:54:33;;;;;;;9.10;5.80;;;8.00;99.90;;;;;;5114492;28;20181;-81
2024/01/30 06:56:59;;;;;;;8.43;5.53;;;8.00;99.90;;;;;;5113300;28;20562;-80
2024/01/30 06:59:25;;;;;;;7.87;5.53;;;8.00;99.90;;;;;;5114719;28;20170;-81
2024/01/30 07:01:50;;;;;;;10.27;5.93;;;8.10;99.90;;;;;;5114596;28;20170;-81
2024/01/30 07:04:16;;;;;;;10.50;6.67;;;8.00;99.90;;;;;;5116344;28;20664;-81
2024/01/30 07:06:42;;;;;;;7.77;6.17;;;8.10;99.90;;;;;;5118090;28;20176;-81
2024/01/30 07:09:08;;;;;;;10.83;6.03;;;8.10;99.90;;;;;;5118598;28;20519;-80
2024/01/30 07:11:34;;;;;;;8.37;6.27;;;8.10;99.90;;;;;;5116600;28;20545;-81
2024/01/30 07:13:59;;;;;;;9.53;5.57;;;8.10;99.90;;;;;;5117269;28;20197;-81
2024/01/30 07:16:25;;;;;;;10.67;6.00;;;8.10;99.90;;;;;;5116665;28;20284;-81
2024/01/30 07:18:51;;;;;;;10.03;6.03;;;8.10;99.90;;;;;;5117264;28;20182;-81
2024/01/30 07:21:17;;;;;;;8.03;5.17;;;8.20;99.90;;;;;;5117929;28;20260;-81
2024/01/30 07:23:42;;;;;;;10.73;6.03;;;8.20;99.90;;;;;;5116044;28;20202;-80
2024/01/30 07:26:08;;;;;;;8.30;5.70;;;8.20;99.90;;;;;;5115848;28;20261;-81
2024/01/30 07:28:35;;;;;;;12.77;5.47;;;8.20;99.90;;;;;;5116001;28;20173;-80
2024/01/30 07:31:01;;;;;;;8.67;5.20;;;8.20;99.90;;;;;;5117240;28;20605;-82
2024/01/30 07:33:27;;;;;;;9.33;5.63;;;8.20;99.90;;;;;;5115234;28;20201;-80
2024/01/30 07:35:53;;;;;;;10.50;5.20;;;8.20;99.90;;;;;;5114642;28;20558;-80
2024/01/30 07:38:19;;;;;;;8.27;5.57;;;8.20;99.90;;;;;;5114881;28;20189;-80
2024/01/30 07:40:45;;;;;;;11.63;6.10;;;8.30;99.90;;;;;;5115894;28;20225;-80
2024/01/30 07:43:11;;;;;;;7.67;5.60;;;8.30;99.90;;;;;;5116092;27;20243;-81
2024/01/30 07:45:38;;;;;;;9.60;5.87;;;8.30;99.90;;;;;;5115322;28;20177;-82
2024/01/30 07:48:05;;;;;;;9.20;5.27;;;8.30;99.90;;;;;;5116175;28;20172;-80
2024/01/30 07:50:30;;;;;;;7.80;5.50;;;8.30;99.90;;;;;;5114962;28;20183;-81
2024/01/30 07:52:57;;;;;;;10.23;5.90;;;8.40;99.90;;;;;;5116252;28;20739;-81
2024/01/30 07:55:24;;;;;;;11.37;5.83;;;8.40;99.90;;;;;;5114862;28;20185;-81
2024/01/30 07:57:52;;;;;;;10.20;6.13;;;8.40;99.90;;;;;;5114846;28;20174;-81
2024/01/30 08:00:19;;;;;;;9.27;6.00;;;8.40;99.90;;;;;;5116764;28;20211;-81
2024/01/30 08:02:45;;;;;;;11.70;5.97;;;8.40;99.90;;;;;;5115039;28;20217;-82
2024/01/30 08:05:11;;;;;;;8.43;5.90;;;8.40;99.90;;;;;;5115022;28;20177;-80
2024/01/30 08:07:37;;;;;;;11.80;6.27;;;8.40;99.90;;;;;;5116901;28;20546;-81
2024/01/30 08:10:03;;;;;;;9.07;6.20;;;8.40;99.90;;;;;;5115458;28;20616;-84
2024/01/30 08:12:29;;;;;;;11.23;5.53;;;8.40;99.90;;;;;;5115461;28;20225;-81
2024/01/30 08:14:54;;;;;;;7.07;6.07;;;8.40;99.90;;;;;;5114576;28;20181;-81
2024/01/30 08:17:20;;;;;;;9.53;6.37;;;8.50;99.90;;;;;;5116074;28;20188;-82
2024/01/30 08:19:45;;;;;;;9.90;6.10;;;8.50;99.90;;;;;;5115094;28;20191;-82
2024/01/30 08:22:12;;;;;;;8.40;6.13;;;8.50;99.90;;;;;;5115470;28;20197;-82
2024/01/30 08:24:40;;;;;;;9.17;6.10;;;8.60;99.90;;;;;;5115561;28;20208;-82
2024/01/30 08:27:09;;;;;;;9.93;6.57;;;8.50;99.90;;;;;;5117946;28;20621;-82
2024/01/30 08:29:35;;;;;;;8.27;6.40;;;8.60;99.90;;;;;;5116427;28;20173;-82
2024/01/30 08:32:01;;;;;;;12.90;5.90;;;8.60;99.90;;;;;;5117376;28;20173;-82
2024/01/30 08:34:27;;;;;;;7.50;5.80;;;8.70;99.90;;;;;;5118005;28;20188;-82
2024/01/30 08:36:52;;;;;;;10.47;6.10;;;8.60;99.90;;;;;;5117262;28;20196;-82
2024/01/30 08:39:18;;;;;;;9.40;5.20;;;8.70;99.90;;;;;;5116806;28;20245;-83
2024/01/30 08:41:43;;;;;;;8.33;6.20;;;8.70;99.90;;;;;;5118939;28;20173;-82
2024/01/30 08:44:11;;;;;;;11.37;6.20;;;8.70;99.90;;;;;;5125278;28;20292;-82
2024/01/30 08:46:36;;;;;;;8.80;6.00;;;8.80;99.90;;;;;;5123094;28;20592;-83
2024/01/30 08:49:04;;;;;;;9.00;6.13;;;8.80;99.90;;;;;;5114901;28;20174;-82
2024/01/30 08:51:29;;;;;;;8.53;5.30;;;8.80;99.90;;;;;;5114075;28;20238;-82
2024/01/30 08:53:55;;;;;;;10.23;5.97;;;8.80;99.90;;;;;;5114214;28;20672;-82
2024/01/30 08:56:21;;;;;;;7.83;5.83;;;8.90;99.90;;;;;;5114974;28;20173;-81
2024/01/30 08:58:46;;;;;;;9.27;6.53;;;8.90;99.90;;;;;;5114594;28;20196;-82
2024/01/30 09:01:12;;;;;;;8.43;6.13;;;8.90;99.90;;;;;;5113506;28;20174;-81
2024/01/30 09:03:42;;;;;;;11.77;6.57;;;8.90;99.90;;;;;;5113608;28;20197;-81
2024/01/30 09:06:09;;;;;;;11.63;6.33;;;8.90;99.90;;;;;;5115140;28;20150;-82
2024/01/30 09:08:34;;;;;;;16.03;6.47;;;8.90;99.90;;;;;;5113637;28;20249;-81
2024/01/30 09:11:00;;;;;;;9.77;6.60;;;9.00;99.90;;;;;;5113684;28;20169;-81
2024/01/30 09:13:26;;;;;;;8.17;5.33;;;9.00;99.90;;;;;;5113797;28;20298;-81
2024/01/30 09:15:52;;;;;;;10.00;6.03;;;8.90;99.90;;;;;;5113492;28;20283;-82
2024/01/30 09:18:18;;;;;;;8.43;5.70;;;9.00;99.90;;;;;;5113691;28;20177;-82
2024/01/30 09:20:47;;;;;;;11.17;5.97;;;9.10;99.90;;;;;;5115115;28;20214;-81
2024/01/30 09:23:12;;;;;;;8.47;5.70;;;9.10;99.90;;;;;;5113978;28;20231;-81
2024/01/30 09:25:38;;;;;;;8.50;6.07;;;9.20;99.90;;;;;;5115019;28;20173;-82
2024/01/30 09:28:04;;;;;;;10.33;6.47;;;9.20;99.90;;;;;;5113709;28;20177;-81
2024/01/30 09:30:30;;;;;;;8.97;6.00;;;9.20;99.90;;;;;;5115590;28;20192;-81
2024/01/30 09:32:55;;;;;;;8.97;6.87;;;9.30;99.90;;;;;;5114706;28;20680;-81
2024/01/30 09:35:21;;;;;;;9.17;6.50;;;9.30;99.90;;;;;;5116073;28;20180;-81
2024/01/30 09:37:46;;;;;;;10.63;6.10;;;9.40;99.90;;;;;;5114763;28;20216;-81
2024/01/30 09:40:12;;;;;;;8.23;5.60;;;9.50;99.90;;;;;;5114781;28;20733;-80
2024/01/30 09:42:38;;;;;;;11.93;6.50;;;9.50;99.90;;;;;;5114226;28;20240;-81
2024/01/30 09:45:05;;;;;;;9.00;6.50;;;9.60;99.90;;;;;;5116009;28;20161;-81
2024/01/30 09:47:44;;;;;;;9.03;6.43;;;9.70;99.90;;;;;;5114708;28;20544;-80
2024/01/30 09:50:11;;;;;;;9.57;6.77;;;9.70;99.90;;;;;;5118341;28;20520;-81
2024/01/30 09:52:37;;;;;;;8.13;6.50;;;9.80;99.90;;;;;;5133630;28;20272;-80
2024/01/30 09:55:03;;;;;;;11.53;6.37;;;9.80;99.90;;;;;;5134223;28;20154;-81
2024/01/30 09:57:29;;;;;;;8.33;6.10;;;9.90;99.90;;;;;;5120324;28;20264;-82
2024/01/30 09:59:55;;;;;;;10.13;6.80;;;9.90;99.90;;;;;;5115411;28;20209;-82
2024/01/30 10:02:21;;;;;;;8.70;5.60;;;10.00;99.90;;;;;;5118565;28;20228;-82
2024/01/30 10:04:52;;;;;;;10.00;5.63;;;10.00;99.90;;;;;;5116783;28;20170;-82
2024/01/30 10:07:20;;;;;;;12.03;6.60;;;10.10;99.90;;;;;;5116858;28;20174;-81
2024/01/30 10:09:46;;;;;;;7.90;6.07;;;10.10;99.90;;;;;;5116442;28;20244;-81
2024/01/30 10:12:13;;;;;;;9.97;6.17;;;10.20;99.90;;;;;;5115354;28;20272;-81
2024/01/30 10:14:42;;;;;;;10.13;6.80;;;10.20;99.90;;;;;;5115500;28;20287;-81
2024/01/30 10:17:09;;;;;;;11.60;7.03;;;10.30;99.90;;;;;;5116727;28;20174;-82
2024/01/30 10:19:36;;;;;;;10.20;7.07;;;10.30;99.90;;;;;;5116259;28;20169;-82
2024/01/30 10:22:02;;;;;;;11.50;6.47;;;10.40;99.90;;;;;;5114882;28;20174;-82
2024/01/30 10:24:29;;;;;;;10.13;6.70;;;10.40;99.90;;;;;;5113970;28;20250;-81
2024/01/30 10:26:55;;;;;;;13.77;7.03;;;10.40;99.90;;;;;;5114319;28;20173;-82
2024/01/30 10:29:21;;;;;;;8.37;6.30;;;10.50;99.90;;;;;;5115845;28;20248;-82
2024/01/30 10:31:47;;;;;;;11.03;6.40;;;10.50;99.90;;;;;;5114155;28;20180;-82
2024/01/30 10:34:13;;;;;;;9.60;6.30;;;10.60;99.90;;;;;;5114174;28;20189;-81
2024/01/30 10:36:46;;;;;;;9.67;6.20;;;10.60;99.90;;;;;;5114693;28;20201;-81
2024/01/30 10:39:15;;;;;;;12.60;6.70;;;10.60;99.90;;;;;;5116119;28;20184;-81
2024/01/30 10:41:44;;;;;;;10.20;6.70;;;10.70;99.90;;;;;;5120741;28;20161;-82
2024/01/30 10:44:11;;;;;;;10.87;6.20;;;10.70;99.90;;;;;;5120803;28;20272;-81
2024/01/30 10:46:42;;;;;;;9.73;6.90;;;10.70;99.90;;;;;;5120341;28;20161;-82
2024/01/30 10:49:08;;;;;;;11.10;6.37;;;10.70;99.90;;;;;;5120408;28;20170;-81
2024/01/30 10:51:35;;;;;;;7.97;6.07;;;10.70;99.90;;;;;;5118837;28;20173;-80
2024/01/30 10:54:02;;;;;;;9.03;6.67;;;10.70;99.90;;;;;;5121463;28;20262;-78
2024/01/30 10:56:29;;;;;;;8.97;6.13;;;10.70;99.90;;;;;;5123999;28;20178;-81
2024/01/30 10:58:57;;;;;;;12.33;5.90;;;10.80;99.90;;;;;;5129146;28;20181;-83
2024/01/30 11:01:24;;;;;;;10.07;6.90;;;10.80;99.90;;;;;;5120568;28;20181;-83
2024/01/30 11:03:54;;;;;;;8.67;5.83;;;10.80;99.90;;;;;;5118442;28;20197;-81
2024/01/30 11:06:23;;;;;;;11.97;6.57;;;10.90;99.90;;;;;;5119200;28;20177;-83
2024/01/30 11:09:09;;;;;;;10.47;6.63;;;10.90;99.90;;;;;;5120067;28;20165;-80
2024/01/30 11:12:01;;;;;;;11.90;6.50;;;11.00;99.90;;;;;;5119992;28;20538;-81
2024/01/30 11:14:29;;;;;;;10.27;7.17;;;11.10;99.90;;;;;;5118501;28;20189;-81
2024/01/30 11:16:58;;;;;;;12.73;6.53;;;11.10;99.90;;;;;;5119695;27;20174;-80
2024/01/30 11:19:25;;;;;;;10.30;6.80;;;11.10;99.90;;;;;;5119820;28;20533;-81
2024/01/30 11:21:56;;;;;;;8.10;6.13;;;11.10;99.90;;;;;;5117644;28;20177;-81
2024/01/30 11:24:22;;;;;;;10.50;6.80;;;11.20;99.90;;;;;;5119493;28;20182;-80
2024/01/30 11:26:58;;;;;;;10.83;6.53;;;11.20;99.90;;;;;;5117589;28;20281;-81
2024/01/30 11:29:27;;;;;;;12.87;6.77;;;11.20;99.90;;;;;;5117708;28;20523;-80
2024/01/30 11:31:54;;;;;;;9.47;6.80;;;11.30;99.90;;;;;;5120125;28;20166;-81
2024/01/30 11:34:21;;;;;;;11.57;6.57;;;11.30;99.90;;;;;;5117964;28;20191;-80
2024/01/30 11:36:58;;;;;;;11.37;6.57;;;11.20;99.90;;;;;;5115928;28;20181;-80
2024/01/30 11:39:29;;;;;;;14.03;7.00;;;11.30;99.90;;;;;;5117255;28;20177;-82
2024/01/30 11:41:55;;;;;;;13.77;6.27;;;11.30;99.90;;;;;;5117442;28;20162;-80
2024/01/30 11:44:22;;;;;;;12.77;7.37;;;11.30;99.90;;;;;;5117174;28;20191;-81
2024/01/30 11:46:48;;;;;;;11.77;6.70;;;11.30;99.90;;;;;;5117787;28;20166;-81
2024/01/30 11:49:15;;;;;;;11.93;6.97;;;11.40;99.90;;;;;;5116477;28;20169;-81
2024/01/30 11:51:41;;;;;;;11.77;7.23;;;11.30;99.90;;;;;;5117147;28;20243;-82
2024/01/30 11:54:07;;;;;;;13.80;7.27;;;11.20;99.90;;;;;;5116005;28;20293;-82
2024/01/30 11:56:33;;;;;;;10.33;7.20;;;11.20;99.90;;;;;;5117162;28;20174;-82
2024/01/30 11:59:00;;;;;;;10.00;6.70;;;11.20;99.90;;;;;;5118407;28;20188;-81
2024/01/30 12:01:26;;;;;;;11.10;6.63;;;11.20;99.90;;;;;;5120952;28;20261;-82
2024/01/30 12:03:52;;;;;;;12.80;6.87;;;11.20;99.90;;;;;;5117453;28;20382;-81
2024/01/30 12:06:18;;;;;;;9.67;6.73;;;11.20;99.90;;;;;;5118490;28;20193;-82
2024/01/30 12:08:54;;;;;;;16.63;6.90;;;11.20;99.90;;;;;;5117779;28;20593;-81
2024/01/30 12:11:20;;;;;;;12.97;6.57;;;11.20;99.90;;;;;;5117163;28;20257;-81
2024/01/30 12:13:46;;;;;;;9.13;6.77;;;11.20;99.90;;;;;;5117291;28;20235;-81
2024/01/30 12:16:13;;;;;;;11.93;7.13;;;11.20;99.90;;;;;;5116096;28;20284;-81
2024/01/30 12:18:38;;;;;;;11.40;6.97;;;11.20;99.90;;;;;;5115987;28;20230;-82
2024/01/30 12:21:04;;;;;;;13.33;6.93;;;11.30;99.90;;;;;;5115647;28;20264;-82
2024/01/30 12:23:30;;;;;;;11.00;6.43;;;11.30;99.90;;;;;;5115365;28;20290;-82
2024/01/30 12:25:57;;;;;;;9.07;6.53;;;11.30;99.90;;;;;;5117396;28;20564;-81
2024/01/30 12:28:22;;;;;;;10.47;7.07;;;11.50;99.90;;;;;;5115415;28;20632;-81
2024/01/30 12:30:48;;;;;;;15.87;6.80;;;11.30;99.90;;;;;;5115192;28;20170;-80
2024/01/30 12:33:18;;;;;;;10.53;6.70;;;11.30;99.90;;;;;;5117091;28;20239;-82
2024/01/30 12:35:48;;;;;;;11.83;7.10;;;11.30;99.90;;;;;;5115471;28;20174;-82
2024/01/30 12:38:14;;;;;;;13.37;7.23;;;11.30;99.90;;;;;;5115584;28;20231;-81
2024/01/30 12:40:40;;;;;;;12.77;7.07;;;11.30;99.90;;;;;;5116644;28;20666;-80
2024/01/30 12:43:05;;;;;;;14.07;7.07;;;11.50;99.90;;;;;;5116495;28;20201;-82
2024/01/30 12:45:31;;;;;;;15.43;7.23;;;11.30;99.90;;;;;;5114943;28;20639;-82